Time;durP1;ratioP1;P1;durP2;ratioP2;P2;SDS_P1;SDS_P2;PMS_P1;PMS_P2;Temp;Humidity;BMP_temperature;BMP_pressure;BME280_temperature;BME280_humidity;BME280_pressure;Samples;Min_cycle;Max_cycle;Signal;HPM_P1;HPM_P2
2022/08/04 00:00:38;;;;;;;;;;;20.10;83.30;;;;;;4951107;28;19910;-85
2022/08/04 00:03:10;;;;;;;;;;;20.10;83.50;;;;;;4951365;29;19911;-85
2022/08/04 00:05:55;;;;;;;;;;;20.10;84.00;;;;;;4954763;28;20376;-85
2022/08/04 00:08:33;;;;;;;;;;;20.10;85.20;;;;;;4954188;28;19914;-86
2022/08/04 00:10:59;;;;;;;;;;;20.10;86.10;;;;;;4938900;29;19910;-85
2022/08/04 00:13:25;;;;;;;;;;;20.10;86.50;;;;;;4938139;29;19965;-86
2022/08/04 00:15:52;;;;;;;;;;;20.10;85.80;;;;;;4938433;29;19965;-86
2022/08/04 00:18:20;;;;;;;;;;;20.00;85.50;;;;;;4938316;29;19911;-85
2022/08/04 00:20:46;;;;;;;;;;;19.90;85.60;;;;;;4939973;29;19918;-85
2022/08/04 00:23:12;;;;;;;;;;;19.90;84.30;;;;;;4943084;28;19917;-86
2022/08/04 00:25:39;;;;;;;;;;;19.90;83.90;;;;;;4935583;29;19911;-86
2022/08/04 00:28:05;;;;;;;;;;;19.80;84.00;;;;;;4934702;29;20009;-86
2022/08/04 00:30:31;;;;;;;;;;;19.80;85.00;;;;;;4937515;29;19915;-85
2022/08/04 00:32:57;;;;;;;;;;;19.80;85.10;;;;;;4937800;29;19914;-85
2022/08/04 00:35:23;;;;;;;;;;;19.80;85.10;;;;;;4937566;29;19914;-85
2022/08/04 00:37:49;;;;;;;;;;;19.80;85.10;;;;;;4937657;29;19918;-85
2022/08/04 00:40:22;;;;;;;;;;;19.80;85.20;;;;;;4937660;29;19965;-85
2022/08/04 00:42:50;;;;;;;;;;;19.80;84.80;;;;;;4953599;29;19910;-85
2022/08/04 00:45:35;;;;;;;;;;;19.70;84.20;;;;;;4937830;29;19950;-85
2022/08/04 00:48:10;;;;;;;;;;;19.70;84.10;;;;;;4937440;29;19925;-85
2022/08/04 00:50:55;;;;;;;;;;;19.70;84.00;;;;;;4949669;28;19915;-86
2022/08/04 00:53:36;;;;;;;;;;;19.70;83.60;;;;;;4918097;29;20425;-85
2022/08/04 00:56:03;;;;;;;;;;;19.70;83.50;;;;;;4926099;29;19915;-85
2022/08/04 00:58:35;;;;;;;;;;;19.70;83.80;;;;;;4937757;29;19917;-85
2022/08/04 01:01:05;;;;;;;;;;;19.70;83.80;;;;;;4933818;28;20010;-85
2022/08/04 01:03:34;;;;;;;;;;;19.70;84.30;;;;;;4950405;29;19993;-86
2022/08/04 01:06:11;;;;;;;;;;;19.70;84.00;;;;;;4936538;29;20376;-85
2022/08/04 01:08:47;;;;;;;;;;;19.70;84.00;;;;;;4949785;28;20362;-87
2022/08/04 01:11:23;;;;;;;;;;;19.70;83.80;;;;;;4953324;28;20000;-86
2022/08/04 01:14:07;;;;;;;;;;;19.70;84.30;;;;;;4937277;29;19910;-86
2022/08/04 01:16:34;;;;;;;;;;;19.70;84.60;;;;;;4944647;28;20005;-85
2022/08/04 01:19:02;;;;;;;;;;;19.60;84.10;;;;;;4952882;28;19910;-85
2022/08/04 01:21:36;;;;;;;;;;;19.60;83.40;;;;;;4953107;28;19910;-86
2022/08/04 01:24:08;;;;;;;;;;;19.60;83.60;;;;;;4953009;28;20063;-85
2022/08/04 01:26:42;;;;;;;;;;;19.50;83.80;;;;;;4941329;28;19911;-85
2022/08/04 01:29:08;;;;;;;;;;;19.50;84.20;;;;;;4950012;28;19970;-85
2022/08/04 01:31:53;;;;;;;;;;;19.50;84.80;;;;;;4937390;29;20381;-85
2022/08/04 01:34:19;;;;;;;;;;;19.40;85.00;;;;;;4936690;29;19933;-85
2022/08/04 01:36:46;;;;;;;;;;;19.40;85.90;;;;;;4936936;29;19921;-85
2022/08/04 01:41:58;;;;;;;;;;;19.40;86.20;;;;;;4949530;28;19915;-86
2022/08/04 01:44:26;;;;;;;;;;;19.40;86.10;;;;;;4933130;29;19954;-86
2022/08/04 01:46:52;;;;;;;;;;;19.40;86.20;;;;;;4952672;28;19946;-85
2022/08/04 01:49:18;;;;;;;;;;;19.30;86.10;;;;;;4952326;28;19960;-85
2022/08/04 01:51:45;;;;;;;;;;;19.30;86.40;;;;;;4952480;28;19918;-86
2022/08/04 01:54:11;;;;;;;;;;;19.30;86.30;;;;;;4952067;28;20378;-86
2022/08/04 01:56:37;;;;;;;;;;;19.20;86.60;;;;;;4924260;28;19945;-86
2022/08/04 01:59:03;;;;;;;;;;;19.20;86.20;;;;;;4932418;29;20001;-86
2022/08/04 02:01:33;;;;;;;;;;;19.20;86.50;;;;;;4940283;29;20522;-85
2022/08/04 02:03:59;;;;;;;;;;;19.10;86.20;;;;;;4948958;29;19962;-85
2022/08/04 02:06:38;;;;;;;;;;;19.10;86.80;;;;;;4926227;28;19981;-87
2022/08/04 02:09:21;;;;;;;;;;;19.10;88.20;;;;;;4935545;29;20258;-85
2022/08/04 02:11:59;;;;;;;;;;;19.20;87.20;;;;;;4948631;28;19946;-87
2022/08/04 02:14:40;;;;;;;;;;;19.10;87.00;;;;;;4938342;29;19965;-85
2022/08/04 02:17:13;;;;;;;;;;;19.20;87.10;;;;;;4938725;29;19911;-85
2022/08/04 02:19:56;;;;;;;;;;;19.10;86.80;;;;;;4954382;29;19914;-86
2022/08/04 02:22:23;;;;;;;;;;;19.20;85.50;;;;;;4939598;28;20509;-85
2022/08/04 02:24:49;;;;;;;;;;;19.20;85.60;;;;;;4938032;29;19911;-87
2022/08/04 02:27:15;;;;;;;;;;;19.30;85.00;;;;;;4937051;28;19911;-86
2022/08/04 02:29:47;;;;;;;;;;;19.30;85.10;;;;;;4935180;29;19923;-85
2022/08/04 02:32:26;;;;;;;;;;;19.40;84.80;;;;;;4957004;28;19910;-85
2022/08/04 02:34:51;;;;;;;;;;;19.40;84.40;;;;;;4934737;29;19915;-86
2022/08/04 02:37:19;;;;;;;;;;;19.40;84.20;;;;;;4968325;28;20435;-86
2022/08/04 02:39:46;;;;;;;;;;;19.50;84.20;;;;;;4938725;29;19910;-85
2022/08/04 02:42:13;;;;;;;;;;;19.50;84.10;;;;;;4954909;28;19914;-85
2022/08/04 02:44:40;;;;;;;;;;;19.50;84.30;;;;;;4935573;28;19925;-86
2022/08/04 02:47:06;;;;;;;;;;;19.50;84.00;;;;;;4935293;29;19925;-88
2022/08/04 02:49:35;;;;;;;;;;;19.50;83.80;;;;;;4919206;29;19914;-85
2022/08/04 02:52:02;;;;;;;;;;;19.50;83.90;;;;;;4934345;29;19925;-85
2022/08/04 02:54:30;;;;;;;;;;;19.50;84.30;;;;;;4929561;28;1146664;-85
2022/08/04 02:56:56;;;;;;;;;;;19.50;84.50;;;;;;4950673;28;19914;-85
2022/08/04 02:59:24;;;;;;;;;;;19.50;84.20;;;;;;4939172;29;20068;-85
2022/08/04 03:01:53;;;;;;;;;;;19.50;84.00;;;;;;4955480;28;20633;-85
2022/08/04 03:04:25;;;;;;;;;;;19.50;83.80;;;;;;4954533;28;20369;-90
2022/08/04 03:06:50;;;;;;;;;;;19.50;83.90;;;;;;4936755;29;19961;-85
2022/08/04 03:09:35;;;;;;;;;;;19.50;83.90;;;;;;4936169;28;20005;-85
2022/08/04 03:12:00;;;;;;;;;;;19.50;84.60;;;;;;4947791;28;19911;-86
2022/08/04 03:14:42;;;;;;;;;;;19.50;86.80;;;;;;4951218;28;19921;-85
2022/08/04 03:17:34;;;;;;;;;;;19.50;87.70;;;;;;4954316;28;19910;-85
2022/08/04 03:20:09;;;;;;;;;;;19.50;87.90;;;;;;4951967;28;19922;-86
2022/08/04 03:22:54;;;;;;;;;;;19.40;86.70;;;;;;4935946;28;19978;-87
2022/08/04 03:25:30;;;;;;;;;;;19.40;86.80;;;;;;4942252;29;19993;-85
2022/08/04 03:28:05;;;;;;;;;;;19.30;86.90;;;;;;4938987;29;19918;-85
2022/08/04 03:30:37;;;;;;;;;;;19.30;87.20;;;;;;4954484;28;20025;-87
2022/08/04 03:33:21;;;;;;;;;;;19.20;87.70;;;;;;4935103;29;19911;-85
2022/08/04 03:36:06;;;;;;;;;;;19.10;88.00;;;;;;4940095;28;19962;-85
2022/08/04 03:38:57;;;;;;;;;;;19.10;88.10;;;;;;4954722;28;19918;-86
2022/08/04 03:41:32;;;;;;;;;;;19.00;88.10;;;;;;4938525;29;20050;-86
2022/08/04 03:44:17;;;;;;;;;;;18.90;87.90;;;;;;4938200;29;19914;-86
2022/08/04 03:46:51;;;;;;;;;;;18.90;88.50;;;;;;4944386;28;19918;-84
2022/08/04 03:49:26;;;;;;;;;;;18.80;88.50;;;;;;4934935;29;19925;-85
2022/08/04 03:55:26;;;;;;;;;;;18.80;89.20;;;;;;4955039;28;20365;-85
2022/08/04 03:57:52;;;;;;;;;;;18.70;89.80;;;;;;4972360;28;19917;-85
2022/08/04 04:00:18;;;;;;;;;;;18.70;90.20;;;;;;4958213;28;19906;-86
2022/08/04 04:02:51;;;;;;;;;;;18.70;90.20;;;;;;4953814;28;19914;-88
2022/08/04 04:05:20;;;;;;;;;;;18.70;90.50;;;;;;4953815;29;19911;-85
2022/08/04 04:07:52;;;;;;;;;;;18.70;90.90;;;;;;4934868;29;19964;-85
2022/08/04 04:10:28;;;;;;;;;;;18.70;91.00;;;;;;4936490;29;19911;-85
2022/08/04 04:13:01;;;;;;;;;;;18.60;91.00;;;;;;4938198;29;20473;-85
2022/08/04 04:15:56;;;;;;;;;;;18.60;91.20;;;;;;4969434;28;20337;-85
2022/08/04 04:18:28;;;;;;;;;;;18.60;91.10;;;;;;4973827;28;20122;-84
2022/08/04 04:21:05;;;;;;;;;;;18.50;91.20;;;;;;4955178;29;19997;-85
2022/08/04 04:23:46;;;;;;;;;;;18.50;91.30;;;;;;4956022;28;19910;-85
2022/08/04 04:26:27;;;;;;;;;;;18.50;91.40;;;;;;4942467;29;19918;-84
2022/08/04 04:28:53;;;;;;;;;;;18.50;91.40;;;;;;4933762;29;19914;-85
2022/08/04 04:31:22;;;;;;;;;;;18.50;91.50;;;;;;4941166;28;19974;-86
2022/08/04 04:34:03;;;;;;;;;;;18.60;91.40;;;;;;4918119;29;20366;-85
2022/08/04 04:36:43;;;;;;;;;;;18.60;91.60;;;;;;4954267;28;20417;-85
2022/08/04 04:39:30;;;;;;;;;;;18.60;92.00;;;;;;4961509;28;19961;-85
2022/08/04 04:42:01;;;;;;;;;;;18.60;92.20;;;;;;4938783;29;20390;-85
2022/08/04 04:44:46;;;;;;;;;;;18.70;92.20;;;;;;4933654;28;19910;-85
2022/08/04 04:47:21;;;;;;;;;;;18.70;92.20;;;;;;4950568;28;19917;-85
2022/08/04 04:49:53;;;;;;;;;;;18.80;92.40;;;;;;4937391;29;19977;-84
2022/08/04 04:52:23;;;;;;;;;;;18.80;92.20;;;;;;4950781;29;19917;-84
2022/08/04 04:55:03;;;;;;;;;;;18.90;91.70;;;;;;4927408;28;19914;-85
2022/08/04 04:57:33;;;;;;;;;;;19.00;91.30;;;;;;4949223;28;20002;-86
2022/08/04 05:00:01;;;;;;;;;;;19.20;91.20;;;;;;4934038;29;20269;-85
2022/08/04 05:02:35;;;;;;;;;;;19.30;91.60;;;;;;4951836;29;19970;-85
2022/08/04 05:05:17;;;;;;;;;;;19.40;91.20;;;;;;4936591;29;19910;-85
2022/08/04 05:08:01;;;;;;;;;;;19.50;90.80;;;;;;4917991;29;19997;-86
2022/08/04 05:10:46;;;;;;;;;;;19.70;91.40;;;;;;4936518;29;19918;-85
2022/08/04 05:13:27;;;;;;;;;;;19.80;92.30;;;;;;4936488;29;20316;-86
2022/08/04 05:15:57;;;;;;;;;;;19.90;92.20;;;;;;4966366;28;19910;-84
2022/08/04 05:18:25;;;;;;;;;;;20.00;89.60;;;;;;4936603;29;19957;-85
2022/08/04 05:21:04;;;;;;;;;;;20.20;89.60;;;;;;4949461;29;19965;-84
2022/08/04 05:23:33;;;;;;;;;;;20.40;88.60;;;;;;4947841;28;19918;-84
2022/08/04 05:26:00;;;;;;;;;;;20.60;86.40;;;;;;4903830;29;20433;-85
2022/08/04 05:28:35;;;;;;;;;;;20.80;85.90;;;;;;4903082;29;19973;-84
2022/08/04 05:31:17;;;;;;;;;;;21.00;86.10;;;;;;4944443;28;20424;-85
2022/08/04 05:33:48;;;;;;;;;;;21.20;84.00;;;;;;4948141;29;20416;-85
2022/08/04 05:36:15;;;;;;;;;;;21.40;83.10;;;;;;4942459;28;20250;-84
2022/08/04 05:38:42;;;;;;;;;;;21.60;81.50;;;;;;4933228;29;19922;-84
2022/08/04 05:41:09;;;;;;;;;;;21.80;81.70;;;;;;4941294;28;19910;-85
2022/08/04 05:43:40;;;;;;;;;;;22.00;80.00;;;;;;4947539;28;20009;-86
2022/08/04 05:46:07;;;;;;;;;;;22.20;80.10;;;;;;4948023;28;19959;-84
2022/08/04 05:48:33;;;;;;;;;;;22.40;79.30;;;;;;4948807;28;19942;-85
2022/08/04 05:51:00;;;;;;;;;;;22.70;80.30;;;;;;4916733;29;19915;-83
2022/08/04 05:53:26;;;;;;;;;;;22.90;78.40;;;;;;4932241;29;20569;-85
2022/08/04 05:55:52;;;;;;;;;;;23.20;79.40;;;;;;4941572;28;19915;-85
2022/08/04 05:58:18;;;;;;;;;;;23.40;75.20;;;;;;4932049;29;20372;-84
2022/08/04 06:00:45;;;;;;;;;;;23.60;74.60;;;;;;4951033;29;19933;-86
2022/08/04 06:03:12;;;;;;;;;;;23.90;75.80;;;;;;4931853;29;19998;-85
2022/08/04 06:05:38;;;;;;;;;;;24.30;73.70;;;;;;4934641;28;19946;-85
2022/08/04 06:08:04;;;;;;;;;;;24.70;71.30;;;;;;4935275;29;19961;-85
2022/08/04 06:10:31;;;;;;;;;;;25.00;71.30;;;;;;4925895;29;20017;-84
2022/08/04 06:13:01;;;;;;;;;;;25.30;68.90;;;;;;4934159;29;19954;-84
2022/08/04 06:15:28;;;;;;;;;;;25.50;68.10;;;;;;4948979;28;19915;-84
2022/08/04 06:18:00;;;;;;;;;;;25.90;67.70;;;;;;4935024;29;19937;-85
2022/08/04 06:20:29;;;;;;;;;;;26.10;66.00;;;;;;4934728;29;20009;-85
2022/08/04 06:22:57;;;;;;;;;;;26.30;65.40;;;;;;4945885;29;19957;-84
2022/08/04 06:25:25;;;;;;;;;;;26.60;64.40;;;;;;4948628;28;19911;-84
2022/08/04 06:27:51;;;;;;;;;;;26.80;64.10;;;;;;4950337;28;19945;-84
2022/08/04 06:30:18;;;;;;;;;;;27.10;63.80;;;;;;4925031;29;19915;-85
2022/08/04 06:32:54;;;;;;;;;;;27.40;62.90;;;;;;4931702;29;20345;-85
2022/08/04 06:35:20;;;;;;;;;;;27.60;61.00;;;;;;4932964;29;19926;-85
2022/08/04 06:37:46;;;;;;;;;;;27.90;61.20;;;;;;4919379;29;19915;-84
2022/08/04 06:40:13;;;;;;;;;;;28.30;59.60;;;;;;4949717;28;20317;-85
2022/08/04 06:42:40;;;;;;;;;;;28.40;58.60;;;;;;4950645;29;19911;-85
2022/08/04 06:45:06;;;;;;;;;;;28.60;57.90;;;;;;4934636;29;19913;-85
2022/08/04 06:47:32;;;;;;;;;;;28.90;58.90;;;;;;4916656;28;19914;-86
2022/08/04 06:49:59;;;;;;;;;;;28.90;57.30;;;;;;4950419;28;19918;-86
2022/08/04 06:52:24;;;;;;;;;;;29.30;58.50;;;;;;4934561;28;20016;-84
2022/08/04 06:54:51;;;;;;;;;;;29.50;55.80;;;;;;4935655;29;20397;-86
2022/08/04 06:57:19;;;;;;;;;;;29.60;56.30;;;;;;4921167;28;19919;-86
2022/08/04 06:59:50;;;;;;;;;;;29.90;55.80;;;;;;4935443;29;19950;-86
2022/08/04 07:02:19;;;;;;;;;;;30.20;55.30;;;;;;4949159;28;19915;-87
2022/08/04 07:04:45;;;;;;;;;;;30.30;53.70;;;;;;4951598;28;19930;-86
2022/08/04 07:07:11;;;;;;;;;;;30.50;55.60;;;;;;4970744;28;19965;-86
2022/08/04 07:09:37;;;;;;;;;;;30.80;53.60;;;;;;4954991;28;19926;-88
2022/08/04 07:12:04;;;;;;;;;;;30.80;52.10;;;;;;4954799;28;19965;-88
2022/08/04 07:14:30;;;;;;;;;;;30.80;53.80;;;;;;4939291;29;19917;-86
2022/08/04 07:16:57;;;;;;;;;;;30.90;52.70;;;;;;4928153;29;19917;-87
2022/08/04 07:19:22;;;;;;;;;;;30.90;52.30;;;;;;4955408;28;19949;-87
2022/08/04 07:21:48;;;;;;;;;;;31.00;52.60;;;;;;4948380;29;19942;-85
2022/08/04 07:24:14;;;;;;;;;;;31.20;50.90;;;;;;4955045;28;19936;-88
2022/08/04 07:26:40;;;;;;;;;;;31.20;50.50;;;;;;4950669;28;20277;-86
2022/08/04 07:29:06;;;;;;;;;;;31.30;50.60;;;;;;4919673;29;19923;-88
2022/08/04 07:31:32;;;;;;;;;;;31.50;51.30;;;;;;4950941;28;20428;-87
2022/08/04 07:33:59;;;;;;;;;;;31.80;51.80;;;;;;4935283;29;19934;-86
2022/08/04 07:36:25;;;;;;;;;;;32.00;48.50;;;;;;4969751;28;19961;-86
2022/08/04 07:38:51;;;;;;;;;;;32.10;48.90;;;;;;4935393;29;19958;-87
2022/08/04 07:41:23;;;;;;;;;;;31.90;48.20;;;;;;4938501;28;20376;-87
2022/08/04 07:43:49;;;;;;;;;;;32.00;49.10;;;;;;4954529;28;19914;-88
2022/08/04 07:46:15;;;;;;;;;;;32.40;47.80;;;;;;4950697;28;19914;-87
2022/08/04 07:48:41;;;;;;;;;;;32.40;47.60;;;;;;4934467;29;19957;-87
2022/08/04 07:51:07;;;;;;;;;;;32.70;46.30;;;;;;4926469;29;19918;-87
2022/08/04 07:53:33;;;;;;;;;;;32.90;47.20;;;;;;4937665;29;19915;-86
2022/08/04 07:55:59;;;;;;;;;;;32.90;46.00;;;;;;4941279;29;19949;-87
2022/08/04 07:58:26;;;;;;;;;;;33.00;46.50;;;;;;4960959;28;20013;-89
2022/08/04 08:00:53;;;;;;;;;;;33.00;46.20;;;;;;4918972;29;20009;-88
2022/08/04 08:03:19;;;;;;;;;;;32.90;45.50;;;;;;4939838;28;19926;-89
2022/08/04 08:05:45;;;;;;;;;;;33.00;48.00;;;;;;4930959;29;19933;-87
2022/08/04 08:08:11;;;;;;;;;;;33.10;45.10;;;;;;4949912;28;19996;-87
2022/08/04 08:10:37;;;;;;;;;;;33.10;45.60;;;;;;4952546;28;19915;-86
2022/08/04 08:13:03;;;;;;;;;;;33.10;46.00;;;;;;4933106;29;19921;-89
2022/08/04 08:15:30;;;;;;;;;;;33.00;45.70;;;;;;4922248;29;19918;-87
2022/08/04 08:17:55;;;;;;;;;;;32.60;46.60;;;;;;4949103;28;20437;-89
2022/08/04 08:20:21;;;;;;;;;;;32.40;46.30;;;;;;4921785;29;20005;-88
2022/08/04 08:22:47;;;;;;;;;;;32.20;47.00;;;;;;4924882;29;19926;-87
2022/08/04 08:25:12;;;;;;;;;;;32.00;46.50;;;;;;4933291;29;19911;-87
2022/08/04 08:27:38;;;;;;;;;;;31.90;47.90;;;;;;4936815;29;19918;-87
2022/08/04 08:30:04;;;;;;;;;;;31.80;46.90;;;;;;4953091;28;19910;-87
2022/08/04 08:32:30;;;;;;;;;;;31.90;49.10;;;;;;4936494;29;19965;-87
2022/08/04 08:34:56;;;;;;;;;;;31.90;48.70;;;;;;4933103;29;19914;-87
2022/08/04 08:37:21;;;;;;;;;;;31.80;47.20;;;;;;4960039;28;19918;-87
2022/08/04 08:39:54;;;;;;;;;;;31.70;48.30;;;;;;4917230;29;19911;-88
2022/08/04 08:42:34;;;;;;;;;;;31.50;47.20;;;;;;4951452;28;20001;-87
2022/08/04 08:45:05;;;;;;;;;;;31.40;48.70;;;;;;4950911;28;19910;-87
2022/08/04 08:47:42;;;;;;;;;;;31.20;47.70;;;;;;4936512;28;19917;-88
2022/08/04 08:50:26;;;;;;;;;;;31.30;49.10;;;;;;4936319;29;19961;-88
2022/08/04 08:53:31;;;;;;;;;;;31.30;46.50;;;;;;4932545;29;19958;-87
2022/08/04 08:55:56;;;;;;;;;;;31.30;47.00;;;;;;4931526;29;19919;-89
2022/08/04 08:58:34;;;;;;;;;;;31.30;47.10;;;;;;4915412;29;19954;-87
2022/08/04 09:01:06;;;;;;;;;;;31.30;46.90;;;;;;4942270;29;19917;-88
2022/08/04 09:03:49;;;;;;;;;;;31.30;48.80;;;;;;4967486;28;19953;-87
2022/08/04 09:06:27;;;;;;;;;;;31.40;46.70;;;;;;4950968;28;19911;-87
2022/08/04 09:09:09;;;;;;;;;;;31.10;46.80;;;;;;4948817;28;20000;-89
2022/08/04 09:11:40;;;;;;;;;;;31.10;47.20;;;;;;4959114;28;19922;-86
2022/08/04 09:14:16;;;;;;;;;;;31.00;47.20;;;;;;4935035;28;19989;-86
2022/08/04 09:16:58;;;;;;;;;;;31.10;49.50;;;;;;4944277;28;20416;-88
2022/08/04 09:19:26;;;;;;;;;;;31.10;46.90;;;;;;4951167;28;20325;-87
2022/08/04 09:21:57;;;;;;;;;;;31.10;46.60;;;;;;4967182;28;19968;-86
2022/08/04 09:24:27;;;;;;;;;;;31.10;46.10;;;;;;4945074;28;19946;-87
2022/08/04 09:27:11;;;;;;;;;;;31.20;46.20;;;;;;4956662;28;19913;-88
2022/08/04 09:29:37;;;;;;;;;;;31.10;45.90;;;;;;4950750;28;20005;-87
2022/08/04 09:32:21;;;;;;;;;;;31.10;47.20;;;;;;4964011;28;19953;-86
2022/08/04 09:35:06;;;;;;;;;;;31.10;47.40;;;;;;4930281;28;19922;-88
2022/08/04 09:37:36;;;;;;;;;;;31.20;49.20;;;;;;4948379;28;19993;-88
2022/08/04 09:40:19;;;;;;;;;;;31.40;46.90;;;;;;4948482;28;19915;-87
2022/08/04 09:43:01;;;;;;;;;;;31.50;48.60;;;;;;4931517;29;19911;-87
2022/08/04 09:45:47;;;;;;;;;;;31.40;45.90;;;;;;4961365;28;19925;-87
2022/08/04 09:48:21;;;;;;;;;;;31.40;45.80;;;;;;4931228;29;20130;-85
2022/08/04 09:50:52;;;;;;;;;;;31.50;46.80;;;;;;4937527;28;19914;-87
2022/08/04 09:53:24;;;;;;;;;;;31.50;44.70;;;;;;4937764;28;20350;-85
2022/08/04 09:55:55;;;;;;;;;;;31.50;47.70;;;;;;4932589;28;19915;-87
2022/08/04 09:58:36;;;;;;;;;;;31.60;47.10;;;;;;4932022;29;19911;-85
2022/08/04 10:01:05;;;;;;;;;;;31.60;44.40;;;;;;4943556;28;20300;-85
2022/08/04 10:03:33;;;;;;;;;;;31.50;44.20;;;;;;4952817;28;20437;-86
2022/08/04 10:06:02;;;;;;;;;;;31.60;45.80;;;;;;4951089;28;19918;-86
2022/08/04 10:08:30;;;;;;;;;;;31.50;43.60;;;;;;4954553;28;19937;-84
2022/08/04 10:11:08;;;;;;;;;;;31.60;43.80;;;;;;4939604;28;20415;-83
2022/08/04 10:13:52;;;;;;;;;;;31.70;44.00;;;;;;4952222;29;19922;-83
2022/08/04 10:16:33;;;;;;;;;;;31.70;45.80;;;;;;4942297;28;19911;-85
2022/08/04 10:19:25;;;;;;;;;;;31.80;46.00;;;;;;4967763;28;19914;-84
2022/08/04 10:22:00;;;;;;;;;;;31.90;46.60;;;;;;4950513;29;19917;-86
2022/08/04 10:24:45;;;;;;;;;;;31.90;43.60;;;;;;4967876;28;19910;-85
2022/08/04 10:27:20;;;;;;;;;;;31.90;44.90;;;;;;4956721;28;20004;-85
2022/08/04 10:29:46;;;;;;;;;;;31.90;45.80;;;;;;4955907;28;20317;-86
2022/08/04 10:32:22;;;;;;;;;;;32.10;45.00;;;;;;4969340;28;19946;-84
2022/08/04 10:34:47;;;;;;;;;;;32.10;45.70;;;;;;4972429;28;19961;-85
2022/08/04 10:37:32;;;;;;;;;;;32.20;45.70;;;;;;4954832;28;19918;-86
2022/08/04 10:42:58;;;;;;;;;;;32.00;42.30;;;;;;4965048;28;20351;-86
2022/08/04 10:45:27;;;;;;;;;;;32.00;44.60;;;;;;4956336;28;19918;-84
2022/08/04 10:47:57;;;;;;;;;;;32.00;44.60;;;;;;4970496;28;19910;-86
2022/08/04 10:50:25;;;;;;;;;;;32.00;44.60;;;;;;4939809;29;20562;-87
2022/08/04 10:53:01;;;;;;;;;;;32.00;44.60;;;;;;4954857;29;19917;-85
2022/08/04 10:55:51;;;;;;;;;;;32.10;47.00;;;;;;4939475;29;19925;-84
2022/08/04 10:58:24;;;;;;;;;;;32.10;45.00;;;;;;4955305;28;20001;-86
2022/08/04 11:00:55;;;;;;;;;;;32.20;44.20;;;;;;4939385;29;19962;-86
2022/08/04 11:03:35;;;;;;;;;;;32.30;43.10;;;;;;4939360;28;19939;-85
2022/08/04 11:06:02;;;;;;;;;;;32.20;42.60;;;;;;4942005;28;19910;-86
2022/08/04 11:08:33;;;;;;;;;;;32.20;42.50;;;;;;4938509;29;19918;-85
2022/08/04 11:11:02;;;;;;;;;;;32.10;41.90;;;;;;4959689;28;20375;-88
2022/08/04 11:13:43;;;;;;;;;;;32.10;41.80;;;;;;4942411;28;19921;-84
2022/08/04 11:16:12;;;;;;;;;;;32.00;43.70;;;;;;4938703;29;19917;-84
2022/08/04 11:18:52;;;;;;;;;;;31.90;43.70;;;;;;4938522;29;19930;-87
2022/08/04 11:21:23;;;;;;;;;;;32.10;42.80;;;;;;4944573;29;19910;-85
2022/08/04 11:24:01;;;;;;;;;;;32.10;43.00;;;;;;4936628;29;19945;-84
2022/08/04 11:26:48;;;;;;;;;;;32.10;43.40;;;;;;4950549;28;19938;-84
2022/08/04 11:29:32;;;;;;;;;;;32.10;43.80;;;;;;4934383;29;19941;-86
2022/08/04 11:31:59;;;;;;;;;;;32.30;47.40;;;;;;4948690;29;19918;-84
2022/08/04 11:34:26;;;;;;;;;;;32.40;47.00;;;;;;4937248;28;19942;-86
2022/08/04 11:36:56;;;;;;;;;;;32.40;42.40;;;;;;4959059;28;19918;-84
2022/08/04 11:39:22;;;;;;;;;;;32.60;44.60;;;;;;4936067;28;20349;-85
2022/08/04 11:41:53;;;;;;;;;;;32.70;43.90;;;;;;4963051;28;19961;-85
2022/08/04 11:44:35;;;;;;;;;;;32.90;44.30;;;;;;4951985;28;20288;-87
2022/08/04 11:47:03;;;;;;;;;;;33.00;44.30;;;;;;4937148;29;19997;-87
2022/08/04 11:49:34;;;;;;;;;;;33.10;42.90;;;;;;4932810;28;19911;-84
2022/08/04 11:52:01;;;;;;;;;;;32.90;41.70;;;;;;4945260;28;19950;-84
2022/08/04 11:54:26;;;;;;;;;;;32.80;41.20;;;;;;4947616;28;19977;-83
2022/08/04 11:56:53;;;;;;;;;;;32.70;42.30;;;;;;4936135;29;20345;-84
2022/08/04 11:59:21;;;;;;;;;;;32.80;42.90;;;;;;4952484;29;19936;-84
2022/08/04 12:02:00;;;;;;;;;;;32.70;41.30;;;;;;4958209;28;19960;-83
2022/08/04 12:04:52;;;;;;;;;;;32.80;40.70;;;;;;4951694;29;19910;-84
2022/08/04 12:07:20;;;;;;;;;;;32.90;41.50;;;;;;4949694;28;20437;-83
2022/08/04 12:09:50;;;;;;;;;;;33.00;41.10;;;;;;4953418;28;19965;-85
2022/08/04 12:12:36;;;;;;;;;;;33.00;40.20;;;;;;4963138;28;19917;-84
2022/08/04 12:15:09;;;;;;;;;;;32.90;40.20;;;;;;4931685;29;19938;-84
2022/08/04 12:17:39;;;;;;;;;;;32.90;41.50;;;;;;4964745;28;19910;-85
2022/08/04 12:20:06;;;;;;;;;;;32.80;40.00;;;;;;4934993;29;19910;-84
2022/08/04 12:22:51;;;;;;;;;;;32.90;43.20;;;;;;4946692;28;19921;-84
2022/08/04 12:25:35;;;;;;;;;;;33.10;43.70;;;;;;4951285;28;19911;-85
2022/08/04 12:28:06;;;;;;;;;;;33.30;45.30;;;;;;4916440;29;19965;-85
2022/08/04 12:30:39;;;;;;;;;;;33.40;45.20;;;;;;4904081;29;20300;-84
2022/08/04 12:33:09;;;;;;;;;;;33.70;42.90;;;;;;4935050;29;20581;-85
2022/08/04 12:35:44;;;;;;;;;;;33.90;40.40;;;;;;4942464;28;20391;-85
2022/08/04 12:38:13;;;;;;;;;;;33.90;38.60;;;;;;4957728;28;20392;-85
2022/08/04 12:40:47;;;;;;;;;;;33.70;39.40;;;;;;4935292;28;20609;-83
2022/08/04 12:43:18;;;;;;;;;;;33.60;39.70;;;;;;4950981;28;19911;-86
2022/08/04 12:45:52;;;;;;;;;;;33.70;39.30;;;;;;4949210;28;20686;-84
2022/08/04 12:48:18;;;;;;;;;;;33.70;39.60;;;;;;4948471;28;20014;-85
2022/08/04 12:50:48;;;;;;;;;;;33.80;39.00;;;;;;4950370;28;20029;-85
2022/08/04 12:53:15;;;;;;;;;;;33.80;37.30;;;;;;4934767;29;19921;-86
2022/08/04 12:55:46;;;;;;;;;;;33.80;37.60;;;;;;4935423;29;19914;-84
2022/08/04 12:58:17;;;;;;;;;;;33.90;38.00;;;;;;4951267;28;19965;-85
2022/08/04 13:00:44;;;;;;;;;;;34.00;38.10;;;;;;4952993;28;19910;-85
2022/08/04 13:03:11;;;;;;;;;;;34.10;37.60;;;;;;4933319;29;19911;-86
2022/08/04 13:05:38;;;;;;;;;;;34.10;36.80;;;;;;4922607;28;19919;-84
2022/08/04 13:08:05;;;;;;;;;;;34.30;38.60;;;;;;4956611;28;19918;-85
2022/08/04 13:10:35;;;;;;;;;;;34.40;37.40;;;;;;4934896;29;20293;-85
2022/08/04 13:13:01;;;;;;;;;;;34.40;36.90;;;;;;4946356;29;19999;-84
2022/08/04 13:15:28;;;;;;;;;;;34.40;38.10;;;;;;4935184;29;19966;-84
2022/08/04 13:18:10;;;;;;;;;;;34.60;37.80;;;;;;4935050;29;19917;-83
2022/08/04 13:20:38;;;;;;;;;;;34.60;37.70;;;;;;4951130;28;19958;-85
2022/08/04 13:23:06;;;;;;;;;;;34.50;37.10;;;;;;4940351;28;20332;-84
2022/08/04 13:25:32;;;;;;;;;;;34.40;37.00;;;;;;4934058;29;20336;-84
2022/08/04 13:27:58;;;;;;;;;;;34.50;38.30;;;;;;4950728;28;19949;-83
2022/08/04 13:30:25;;;;;;;;;;;34.60;37.30;;;;;;4933582;29;19907;-83
2022/08/04 13:32:54;;;;;;;;;;;34.60;36.90;;;;;;4951223;28;19961;-85
2022/08/04 13:35:20;;;;;;;;;;;34.60;37.10;;;;;;4924050;28;20030;-84
2022/08/04 13:37:46;;;;;;;;;;;34.60;38.80;;;;;;4941773;28;19914;-86
2022/08/04 13:40:13;;;;;;;;;;;34.70;37.20;;;;;;4935872;28;20633;-83
2022/08/04 13:42:39;;;;;;;;;;;34.70;39.50;;;;;;4949197;28;19941;-84
2022/08/04 13:45:05;;;;;;;;;;;34.60;36.40;;;;;;4936829;28;19917;-83
2022/08/04 13:47:33;;;;;;;;;;;34.50;37.00;;;;;;4958096;28;20308;-83
2022/08/04 13:50:07;;;;;;;;;;;34.40;37.90;;;;;;4930215;28;19989;-86
2022/08/04 13:52:33;;;;;;;;;;;34.30;38.20;;;;;;4949041;29;19917;-83
2022/08/04 13:54:58;;;;;;;;;;;34.20;36.00;;;;;;4939081;29;19915;-83
2022/08/04 13:57:31;;;;;;;;;;;34.00;36.50;;;;;;4934632;29;19921;-84
2022/08/04 13:59:59;;;;;;;;;;;34.00;36.80;;;;;;4942195;29;20263;-83
2022/08/04 14:02:51;;;;;;;;;;;33.90;36.30;;;;;;4917835;29;19961;-83
2022/08/04 14:05:17;;;;;;;;;;;33.90;37.90;;;;;;4949071;28;19938;-83
2022/08/04 14:07:58;;;;;;;;;;;34.00;38.00;;;;;;4953287;28;19911;-83
2022/08/04 14:10:23;;;;;;;;;;;34.00;38.80;;;;;;4964505;28;20046;-83
2022/08/04 14:12:50;;;;;;;;;;;33.90;39.80;;;;;;4936518;29;20468;-83
2022/08/04 14:15:30;;;;;;;;;;;33.90;39.60;;;;;;4953415;29;19918;-84
2022/08/04 14:18:15;;;;;;;;;;;33.80;39.90;;;;;;4953908;28;19917;-83
2022/08/04 14:20:56;;;;;;;;;;;33.80;39.10;;;;;;4959320;28;20060;-84
2022/08/04 14:23:22;;;;;;;;;;;33.70;38.40;;;;;;4954306;28;19937;-83
2022/08/04 14:25:48;;;;;;;;;;;33.70;39.90;;;;;;4953101;29;20292;-84
2022/08/04 14:28:25;;;;;;;;;;;33.80;36.50;;;;;;4937470;29;19918;-84
2022/08/04 14:30:51;;;;;;;;;;;33.70;38.00;;;;;;4938024;29;19911;-85
2022/08/04 14:33:17;;;;;;;;;;;33.60;39.00;;;;;;4938746;29;19918;-83
2022/08/04 14:35:54;;;;;;;;;;;33.60;39.30;;;;;;4936242;28;19993;-84
2022/08/04 14:38:20;;;;;;;;;;;33.40;40.10;;;;;;4934416;29;19914;-84
2022/08/04 14:40:46;;;;;;;;;;;33.30;37.10;;;;;;4953246;28;19921;-84
2022/08/04 14:43:15;;;;;;;;;;;33.20;37.80;;;;;;4952724;29;19914;-84
2022/08/04 14:45:42;;;;;;;;;;;33.10;37.60;;;;;;4967623;28;19911;-85
2022/08/04 14:48:16;;;;;;;;;;;33.00;36.90;;;;;;4953207;28;19946;-85
2022/08/04 14:50:48;;;;;;;;;;;33.00;36.80;;;;;;4934950;29;20347;-85